This is the latest recevied weather packets stored in our database for station/object DL7GAI-7. If no packets are shown the sender has not sent any weather packets the latest 10 day(s).
| Time | Temp. | Humidity | Pressure | Rain* | Wind** | Luminosity | Snow |
|---|---|---|---|---|---|---|---|
| 1777061174 | 13.33° C | 43% | 1018.5 hPa | 0 mm | 3.13 m/s, 45° | - | - |
| 1777060312 | 12.78° C | 46% | 1018.3 hPa | 0 mm | 1.34 m/s, 0° | - | - |
| 1777059525 | 12.78° C | 46% | 1018.3 hPa | 0 mm | 1.34 m/s, 0° | - | - |
| 1777058739 | 16.11° C | 34% | 1017.4 hPa | 0 mm | 1.34 m/s, 45° | - | - |
| 1777057938 | 16.11° C | 34% | 1017.4 hPa | 0 mm | 1.34 m/s, 45° | - | - |
| 1777057169 | 19.44° C | 24% | 1016.8 hPa | 0 mm | 1.79 m/s, 135° | - | - |
| 1777056354 | 19.44° C | 24% | 1016.8 hPa | 0 mm | 1.79 m/s, 135° | - | - |
| 1777055549 | 20° C | 21% | 1016.7 hPa | 0 mm | 2.24 m/s, 135° | - | - |
| 1777054710 | 20° C | 21% | 1016.7 hPa | 0 mm | 2.24 m/s, 135° | - | - |
| 1777053884 | 20.56° C | 26% | 1016.6 hPa | 0 mm | 1.79 m/s, 180° | - | - |
| 1777053025 | 20.56° C | 26% | 1016.6 hPa | 0 mm | 1.79 m/s, 180° | - | - |
| 1777052204 | 20.56° C | 26% | 1016.6 hPa | 0 mm | 1.79 m/s, 180° | - | - |
| 1777051373 | 21.11° C | 20% | 1016.8 hPa | 0 mm | 2.68 m/s, 225° | - | - |
| 1777050584 | 21.11° C | 20% | 1016.8 hPa | 0 mm | 2.68 m/s, 225° | - | - |
| 1777049819 | 21.11° C | 19% | 1016.9 hPa | 0 mm | 1.79 m/s, 180° | - | - |
| 1777049079 | 21.11° C | 19% | 1016.9 hPa | 0 mm | 1.79 m/s, 180° | - | - |
| 1777048214 | 21.67° C | 26% | 1017.1 hPa | 0 mm | 2.68 m/s, 180° | - | - |
| 1777047428 | 21.67° C | 26% | 1017.1 hPa | 0 mm | 2.68 m/s, 180° | - | - |
| 1777046613 | 21.11° C | 25% | 1017.4 hPa | 0 mm | 2.68 m/s, 180° | - | - |
| 1777045828 | 21.11° C | 25% | 1017.4 hPa | 0 mm | 2.68 m/s, 180° | - | - |
| 1777045034 | 21.11° C | 25% | 1017.4 hPa | 0 mm | 2.68 m/s, 180° | - | - |
| 1777044214 | 21.11° C | 25% | 1017.4 hPa | 0 mm | 2.68 m/s, 180° | - | - |
| 1777043418 | 21.11° C | 25% | 1017.4 hPa | 0 mm | 2.68 m/s, 180° | - | - |
| 1777042674 | 20.56° C | 25% | 1017.7 hPa | 0 mm | 2.24 m/s, 225° | - | - |
| 1777041865 | 20.56° C | 25% | 1017.7 hPa | 0 mm | 2.24 m/s, 225° | - | - |
* Rain latest hour (hover to see other rain measurements)
** Current wind speed in m/s (hover to see current wind gust speed)